createdAt,value
2019-01-31T00:02:22.466Z,21.00
2019-01-31T00:05:19.618Z,21.00
2019-01-31T00:08:25.495Z,21.00
2019-01-31T00:11:20.873Z,21.00
2019-01-31T00:14:31.834Z,21.10
2019-01-31T00:17:19.228Z,21.10
2019-01-31T00:20:33.523Z,21.20
2019-01-31T00:23:26.561Z,21.20
2019-01-31T00:26:34.355Z,21.30
2019-01-31T00:29:22.558Z,21.40
2019-01-31T00:32:08.320Z,21.40
2019-01-31T00:35:08.725Z,21.50
2019-01-31T00:38:02.270Z,21.50
2019-01-31T00:41:00.249Z,21.50
2019-01-31T00:43:55.847Z,21.50
2019-01-31T00:46:42.468Z,21.50
2019-01-31T00:49:52.478Z,21.50
2019-01-31T00:53:14.398Z,21.50
2019-01-31T00:56:17.787Z,21.60
2019-01-31T00:59:04.293Z,21.60
2019-01-31T01:01:59.943Z,21.60
2019-01-31T01:05:17.954Z,21.60
2019-01-31T01:08:34.794Z,21.60
2019-01-31T01:11:56.733Z,21.60
2019-01-31T01:15:06.804Z,21.70
2019-01-31T01:18:08.406Z,21.70
2019-01-31T01:21:10.817Z,21.70
2019-01-31T01:23:52.341Z,21.70
2019-01-31T01:26:39.149Z,21.60
2019-01-31T01:29:32.949Z,21.60
2019-01-31T01:32:47.014Z,21.60
2019-01-31T01:35:47.517Z,21.50
2019-01-31T01:38:57.491Z,21.50
2019-01-31T01:41:54.720Z,21.40
2019-01-31T01:45:14.801Z,21.30
2019-01-31T01:47:50.462Z,21.30
2019-01-31T01:51:00.416Z,21.20
2019-01-31T01:54:02.139Z,21.10
2019-01-31T01:57:04.160Z,21.10
2019-01-31T02:00:01.223Z,21.00
2019-01-31T02:03:13.245Z,21.00
2019-01-31T02:06:17.315Z,21.00
2019-01-31T02:09:30.103Z,21.00
2019-01-31T02:12:50.916Z,21.00
2019-01-31T02:15:42.253Z,21.10
2019-01-31T02:18:36.155Z,21.10
2019-01-31T02:21:48.926Z,21.20
2019-01-31T02:24:34.563Z,21.30
2019-01-31T02:27:39.049Z,21.30
2019-01-31T02:30:42.226Z,21.40
2019-01-31T02:33:44.905Z,21.50
2019-01-31T02:36:36.078Z,21.50
2019-01-31T02:39:53.198Z,21.50
2019-01-31T02:42:55.286Z,21.50
2019-01-31T02:46:03.327Z,21.50
2019-01-31T02:49:04.372Z,21.50
2019-01-31T02:52:05.128Z,21.50
2019-01-31T02:55:02.729Z,21.50
2019-01-31T02:58:15.929Z,21.50
2019-01-31T03:01:13.902Z,21.50
2019-01-31T03:04:03.561Z,21.60
2019-01-31T03:07:12.958Z,21.60
2019-01-31T03:10:20.640Z,21.60
2019-01-31T03:13:08.051Z,21.60
2019-01-31T03:16:07.317Z,21.70
2019-01-31T03:19:06.684Z,21.70
2019-01-31T03:22:19.301Z,21.70
2019-01-31T03:25:18.634Z,21.70
2019-01-31T03:28:14.692Z,21.70
2019-01-31T03:31:01.392Z,21.70
2019-01-31T03:33:47.123Z,21.70
2019-01-31T03:36:58.278Z,21.60
2019-01-31T03:39:47.266Z,21.60
2019-01-31T03:43:10.978Z,21.50
2019-01-31T03:46:05.169Z,21.50
2019-01-31T03:49:16.511Z,21.40
2019-01-31T03:52:28.388Z,21.30
2019-01-31T03:55:18.696Z,21.30
2019-01-31T03:58:23.741Z,21.20
2019-01-31T04:01:30.342Z,21.20
2019-01-31T04:04:14.862Z,21.10
2019-01-31T04:06:44.814Z,21.00
2019-01-31T04:09:14.758Z,21.00
2019-01-31T04:11:44.659Z,21.00
2019-01-31T04:14:14.517Z,21.00
2019-01-31T04:16:44.449Z,21.00
2019-01-31T04:19:14.382Z,21.00
2019-01-31T04:21:44.318Z,21.00
2019-01-31T04:24:14.229Z,21.10
2019-01-31T04:26:44.604Z,21.10
2019-01-31T04:29:14.568Z,21.20
2019-01-31T04:31:44.445Z,21.30
2019-01-31T04:34:14.374Z,21.30
2019-01-31T04:36:44.334Z,21.30
2019-01-31T04:39:14.278Z,21.40
2019-01-31T04:41:44.234Z,21.40
2019-01-31T04:44:14.166Z,21.40
2019-01-31T04:46:44.042Z,21.40
2019-01-31T04:49:13.961Z,21.40
2019-01-31T04:51:43.853Z,21.40
2019-01-31T04:54:13.787Z,21.50
2019-01-31T04:56:43.672Z,21.50
2019-01-31T04:59:13.670Z,21.50
2019-01-31T05:01:43.543Z,21.50
2019-01-31T05:04:13.470Z,21.50
2019-01-31T05:06:43.321Z,21.50
2019-01-31T05:09:13.198Z,21.50
2019-01-31T05:11:43.171Z,21.50
2019-01-31T05:14:13.036Z,21.50
2019-01-31T05:16:43.029Z,21.50
2019-01-31T05:19:12.987Z,21.60
2019-01-31T05:21:42.862Z,21.60
2019-01-31T05:24:12.824Z,21.60
2019-01-31T05:26:42.873Z,21.60
2019-01-31T05:29:12.890Z,21.60
2019-01-31T05:31:42.843Z,21.70
2019-01-31T05:34:12.780Z,21.70
2019-01-31T05:36:42.706Z,21.60
2019-01-31T05:39:12.610Z,21.60
2019-01-31T05:41:42.481Z,21.60
2019-01-31T05:44:12.426Z,21.60
2019-01-31T05:46:42.278Z,21.70
2019-01-31T05:49:12.185Z,21.60
2019-01-31T05:51:42.116Z,21.60
2019-01-31T05:54:12.054Z,21.60
2019-01-31T05:56:42.046Z,21.60
2019-01-31T05:59:12.050Z,21.60
2019-01-31T06:01:42.066Z,21.60
2019-01-31T06:04:12.067Z,21.60
2019-01-31T06:06:42.093Z,21.60
2019-01-31T06:09:12.073Z,21.60
2019-01-31T06:11:41.847Z,21.60
2019-01-31T06:14:11.795Z,21.60
2019-01-31T06:16:41.720Z,21.50
2019-01-31T06:19:11.598Z,21.50
2019-01-31T06:21:41.452Z,21.50
2019-01-31T06:24:11.336Z,21.50
2019-01-31T06:26:41.194Z,21.40
2019-01-31T06:29:11.150Z,21.30
2019-01-31T06:31:41.039Z,21.30
2019-01-31T06:34:10.923Z,21.30
2019-01-31T06:36:40.894Z,21.20
2019-01-31T06:39:10.922Z,21.10
2019-01-31T06:41:40.782Z,21.10
2019-01-31T06:44:10.665Z,21.00
2019-01-31T06:46:40.604Z,21.00
2019-01-31T06:49:10.522Z,21.00
2019-01-31T06:51:40.478Z,21.00
2019-01-31T06:54:10.374Z,21.00
2019-01-31T06:56:40.381Z,21.00
2019-01-31T06:59:10.377Z,21.00
2019-01-31T07:01:40.435Z,21.00
2019-01-31T07:04:11.105Z,21.10
2019-01-31T07:06:41.263Z,21.10
2019-01-31T07:09:13.338Z,21.20
2019-01-31T07:11:43.119Z,21.20
2019-01-31T07:14:13.080Z,21.30
2019-01-31T07:16:42.957Z,21.30
2019-01-31T07:19:12.810Z,21.30
2019-01-31T07:21:42.798Z,21.40
2019-01-31T07:24:12.662Z,21.40
2019-01-31T07:26:42.623Z,21.40
2019-01-31T07:29:12.512Z,21.50
2019-01-31T07:31:42.441Z,21.50
2019-01-31T07:34:12.294Z,21.50
2019-01-31T07:36:42.272Z,21.50
2019-01-31T07:39:13.162Z,21.50
2019-01-31T07:41:43.086Z,21.40
2019-01-31T07:44:13.033Z,21.50
2019-01-31T07:46:42.914Z,21.50
2019-01-31T07:49:12.770Z,21.50
2019-01-31T07:51:42.645Z,21.50
2019-01-31T07:54:12.569Z,21.50
2019-01-31T07:56:42.529Z,21.50
2019-01-31T07:59:12.457Z,21.50
2019-01-31T08:01:42.417Z,21.60
2019-01-31T08:04:12.299Z,21.60
2019-01-31T08:06:42.193Z,21.60
2019-01-31T08:09:12.202Z,21.60
2019-01-31T08:11:52.345Z,21.60
2019-01-31T08:14:14.501Z,21.60
2019-01-31T08:16:44.369Z,21.60
2019-01-31T08:19:14.233Z,21.60
2019-01-31T08:21:44.158Z,21.60
2019-01-31T08:24:14.088Z,21.60
2019-01-31T08:26:44.041Z,21.60
2019-01-31T08:29:13.978Z,21.60
2019-01-31T08:31:43.869Z,21.60
2019-01-31T08:34:13.830Z,21.50
2019-01-31T08:36:43.779Z,21.50
2019-01-31T08:39:13.679Z,21.50
2019-01-31T08:41:43.686Z,21.40
2019-01-31T08:44:13.757Z,21.40
2019-01-31T08:46:43.605Z,21.40
2019-01-31T08:49:13.619Z,21.30
2019-01-31T08:51:43.515Z,21.30
2019-01-31T08:54:13.608Z,21.30
2019-01-31T08:56:43.529Z,21.30
2019-01-31T08:59:13.402Z,21.40
2019-01-31T09:01:43.270Z,21.40
2019-01-31T09:04:13.158Z,21.50
2019-01-31T09:06:43.106Z,21.50
2019-01-31T09:09:14.343Z,21.50
2019-01-31T09:11:44.288Z,21.60
2019-01-31T09:14:14.206Z,21.60
2019-01-31T09:16:44.089Z,21.60
2019-01-31T09:19:14.023Z,21.60
2019-01-31T09:22:21.508Z,21.70
2019-01-31T09:25:42.067Z,21.70
2019-01-31T09:28:42.540Z,21.70
2019-01-31T09:31:44.012Z,21.70
2019-01-31T09:34:50.237Z,21.70
2019-01-31T09:38:30.629Z,21.70
2019-01-31T09:41:36.566Z,21.70
2019-01-31T09:44:47.122Z,21.80
2019-01-31T09:47:56.594Z,21.80
2019-01-31T09:51:05.928Z,21.80
2019-01-31T09:53:59.877Z,21.80
2019-01-31T09:57:15.765Z,21.80
2019-01-31T10:00:09.886Z,21.80
2019-01-31T10:03:36.373Z,21.90
2019-01-31T10:06:29.024Z,21.90
2019-01-31T10:09:27.169Z,21.90
2019-01-31T10:12:37.529Z,21.90
2019-01-31T10:15:11.213Z,21.90
2019-01-31T10:18:16.256Z,21.90
2019-01-31T10:21:42.766Z,21.80
2019-01-31T10:24:59.081Z,21.80
2019-01-31T10:28:05.783Z,21.70
2019-01-31T10:31:31.958Z,21.70
2019-01-31T10:34:30.382Z,21.60
2019-01-31T10:37:40.591Z,21.60
2019-01-31T10:40:48.754Z,21.60
2019-01-31T10:43:46.283Z,21.50
2019-01-31T10:46:26.810Z,21.50
2019-01-31T10:49:28.759Z,21.40
2019-01-31T10:52:17.306Z,21.40
2019-01-31T10:55:31.533Z,21.30
2019-01-31T10:59:09.751Z,21.30
2019-01-31T11:02:26.694Z,21.30
2019-01-31T11:05:52.582Z,21.40
2019-01-31T11:09:03.846Z,21.40
2019-01-31T11:11:41.169Z,21.50
2019-01-31T11:14:39.445Z,21.60
2019-01-31T11:17:56.342Z,21.60
2019-01-31T11:21:03.566Z,21.70
2019-01-31T11:24:20.825Z,21.80
2019-01-31T11:27:24.705Z,21.80
2019-01-31T11:30:11.417Z,21.80
2019-01-31T11:33:19.640Z,21.80
2019-01-31T11:36:22.834Z,21.80
2019-01-31T11:39:37.830Z,21.90
2019-01-31T11:42:45.434Z,21.90
2019-01-31T11:45:59.710Z,21.90
2019-01-31T11:48:55.850Z,21.90
2019-01-31T11:51:54.554Z,21.90
2019-01-31T11:54:44.751Z,21.90
2019-01-31T11:58:01.592Z,21.80
2019-01-31T12:00:32.170Z,21.80
2019-01-31T12:03:02.031Z,21.70
2019-01-31T12:05:31.884Z,21.70
2019-01-31T12:08:01.745Z,21.60
2019-01-31T12:10:31.639Z,21.60
2019-01-31T12:13:01.711Z,21.50
2019-01-31T12:15:31.640Z,21.50
2019-01-31T12:18:03.242Z,21.50
2019-01-31T12:20:33.183Z,21.40
2019-01-31T12:23:03.085Z,21.40
2019-01-31T12:25:33.023Z,21.40
2019-01-31T12:28:02.984Z,21.40
2019-01-31T12:30:32.842Z,21.40
2019-01-31T12:33:02.702Z,21.40
2019-01-31T12:35:32.645Z,21.40
2019-01-31T12:38:02.578Z,21.40
2019-01-31T12:40:35.188Z,21.50
2019-01-31T12:43:05.213Z,21.50
2019-01-31T12:45:35.146Z,21.50
2019-01-31T12:48:05.021Z,21.50
2019-01-31T12:50:35.014Z,21.60
2019-01-31T12:53:05.112Z,21.60
2019-01-31T12:55:35.102Z,21.60
2019-01-31T12:58:05.083Z,21.70
2019-01-31T13:00:34.953Z,21.70
2019-01-31T13:03:04.942Z,21.80
2019-01-31T13:05:34.911Z,21.80
2019-01-31T13:08:04.843Z,21.80
2019-01-31T13:10:34.820Z,21.80
2019-01-31T13:13:04.702Z,21.80
2019-01-31T13:15:34.882Z,21.80
2019-01-31T13:18:04.914Z,21.80
2019-01-31T13:20:36.279Z,21.80
2019-01-31T13:23:06.219Z,21.80
2019-01-31T13:25:36.179Z,21.80
2019-01-31T13:28:06.106Z,21.80
2019-01-31T13:30:36.006Z,21.80
2019-01-31T13:33:05.995Z,21.70
2019-01-31T13:35:35.919Z,21.70
2019-01-31T13:38:05.946Z,21.70
2019-01-31T13:40:35.827Z,21.60
2019-01-31T13:43:06.018Z,21.60
2019-01-31T13:45:37.438Z,21.60
2019-01-31T13:48:12.884Z,21.50
2019-01-31T13:50:42.793Z,21.50
2019-01-31T13:53:12.815Z,21.50
2019-01-31T13:55:42.813Z,21.40
2019-01-31T13:58:12.769Z,21.40
2019-01-31T14:00:42.654Z,21.40
2019-01-31T14:03:12.506Z,21.30
2019-01-31T14:05:42.429Z,21.30
2019-01-31T14:08:12.313Z,21.30
2019-01-31T14:10:42.250Z,21.30
2019-01-31T14:13:12.210Z,21.40
2019-01-31T14:15:42.001Z,21.40
2019-01-31T14:18:11.990Z,21.50
2019-01-31T14:20:41.866Z,21.50
2019-01-31T14:23:11.881Z,21.50
2019-01-31T14:25:41.921Z,21.60
2019-01-31T14:28:11.935Z,21.70
2019-01-31T14:30:42.121Z,21.70
2019-01-31T14:33:19.413Z,21.80
2019-01-31T14:35:49.519Z,21.80
2019-01-31T14:38:19.488Z,21.80
2019-01-31T14:40:49.412Z,21.90
2019-01-31T14:43:20.162Z,21.90
2019-01-31T14:45:50.047Z,21.90
2019-01-31T14:48:20.034Z,22.00
2019-01-31T14:50:49.912Z,21.90
2019-01-31T14:53:20.770Z,22.00
2019-01-31T14:55:50.733Z,21.90
2019-01-31T14:58:20.672Z,21.90
2019-01-31T15:00:50.591Z,21.90
2019-01-31T15:03:20.519Z,21.90
2019-01-31T15:05:50.502Z,21.90
2019-01-31T15:08:20.449Z,21.90
2019-01-31T15:10:50.327Z,21.80
2019-01-31T15:13:20.183Z,21.80
2019-01-31T15:15:50.349Z,21.80
2019-01-31T15:18:20.420Z,21.70
2019-01-31T15:20:50.349Z,21.70
2019-01-31T15:23:20.262Z,21.70
2019-01-31T15:25:50.196Z,21.70
2019-01-31T15:28:20.079Z,21.70
2019-01-31T15:30:49.946Z,21.60
2019-01-31T15:33:20.175Z,21.60
2019-01-31T15:35:51.134Z,21.50
2019-01-31T15:38:21.077Z,21.50
2019-01-31T15:40:51.060Z,21.50
2019-01-31T15:43:21.117Z,21.50
2019-01-31T15:45:51.093Z,21.40
2019-01-31T15:48:21.162Z,21.40
2019-01-31T15:50:51.025Z,21.40
2019-01-31T15:53:22.194Z,21.50
2019-01-31T15:55:52.468Z,21.50
2019-01-31T15:58:22.425Z,21.60
2019-01-31T16:00:54.626Z,21.60
2019-01-31T16:03:25.766Z,21.60
2019-01-31T16:05:55.715Z,21.60
2019-01-31T16:08:26.029Z,21.70
2019-01-31T16:10:56.083Z,21.70
2019-01-31T16:13:26.066Z,21.80
2019-01-31T16:15:55.967Z,21.80
2019-01-31T16:18:26.394Z,21.80
2019-01-31T16:20:56.263Z,21.90
2019-01-31T16:23:26.464Z,21.90
2019-01-31T16:25:56.404Z,22.00
2019-01-31T16:28:26.262Z,22.00
2019-01-31T16:30:56.285Z,22.00
2019-01-31T16:33:26.217Z,22.00
2019-01-31T16:35:56.178Z,22.00
2019-01-31T16:38:26.171Z,22.00
2019-01-31T16:40:56.114Z,22.00
2019-01-31T16:43:26.054Z,21.90
2019-01-31T16:45:55.991Z,21.90
2019-01-31T16:48:25.915Z,21.90
2019-01-31T16:50:55.774Z,21.80
2019-01-31T16:53:25.748Z,21.80
2019-01-31T16:55:55.784Z,21.80
2019-01-31T16:58:25.935Z,21.80
2019-01-31T17:00:55.867Z,21.70
2019-01-31T17:03:25.818Z,21.70
2019-01-31T17:05:55.733Z,21.70
2019-01-31T17:08:26.215Z,21.70
2019-01-31T17:10:56.178Z,21.60
2019-01-31T17:13:28.526Z,21.60
2019-01-31T17:15:58.682Z,21.50
2019-01-31T17:18:28.544Z,21.50
2019-01-31T17:20:58.413Z,21.50
2019-01-31T17:23:28.358Z,21.50
2019-01-31T17:25:58.228Z,21.40
2019-01-31T17:28:28.151Z,21.40
2019-01-31T17:30:58.059Z,21.40
2019-01-31T17:33:28.071Z,21.40
2019-01-31T17:36:16.739Z,21.50
2019-01-31T17:38:47.115Z,21.50
2019-01-31T17:41:17.266Z,21.50
2019-01-31T17:43:52.083Z,21.60
2019-01-31T17:46:22.218Z,21.60
2019-01-31T17:48:52.126Z,21.70
2019-01-31T17:51:22.113Z,21.70
2019-01-31T17:53:52.475Z,21.80
2019-01-31T17:56:24.056Z,21.80
2019-01-31T17:58:54.185Z,21.80
2019-01-31T18:01:24.152Z,21.80
2019-01-31T18:03:54.145Z,21.80
2019-01-31T18:06:26.622Z,21.90
2019-01-31T18:08:56.733Z,21.90
2019-01-31T18:11:29.912Z,21.90
2019-01-31T18:13:59.943Z,21.90
2019-01-31T18:16:29.924Z,21.90
2019-01-31T18:19:01.340Z,21.90
2019-01-31T18:21:31.186Z,21.80
2019-01-31T18:24:01.136Z,21.80
2019-01-31T18:26:31.081Z,21.80
2019-01-31T18:29:00.875Z,21.70
2019-01-31T18:31:30.838Z,21.70
2019-01-31T18:34:00.830Z,21.70
2019-01-31T18:36:30.785Z,21.60
2019-01-31T18:39:01.682Z,21.50
2019-01-31T18:41:33.219Z,21.50
2019-01-31T18:44:03.126Z,21.50
2019-01-31T18:46:33.062Z,21.40
2019-01-31T18:49:02.929Z,21.40
2019-01-31T18:51:33.025Z,21.40
2019-01-31T18:54:02.993Z,21.30
2019-01-31T18:56:32.998Z,21.30
2019-01-31T18:59:04.593Z,21.30
2019-01-31T19:01:34.566Z,21.30
2019-01-31T19:04:05.614Z,21.30
2019-01-31T19:06:35.579Z,21.30
2019-01-31T19:09:05.498Z,21.30
2019-01-31T19:11:35.570Z,21.40
2019-01-31T19:14:05.667Z,21.40
2019-01-31T19:16:35.602Z,21.50
2019-01-31T19:19:05.950Z,21.50
2019-01-31T19:21:36.109Z,21.60
2019-01-31T19:24:06.091Z,21.60
2019-01-31T19:26:36.036Z,21.70
2019-01-31T19:29:06.144Z,21.70
2019-01-31T19:31:36.095Z,21.70
2019-01-31T19:34:05.951Z,21.80
2019-01-31T19:36:35.979Z,21.80
2019-01-31T19:39:09.645Z,21.80
2019-01-31T19:41:42.444Z,21.80
2019-01-31T19:44:11.260Z,21.80
2019-01-31T19:46:41.226Z,21.80
2019-01-31T19:49:11.098Z,21.80
2019-01-31T19:51:41.061Z,21.80
2019-01-31T19:54:11.088Z,21.80
2019-01-31T19:56:41.038Z,21.80
2019-01-31T19:59:11.106Z,21.80
2019-01-31T20:01:41.203Z,21.80
2019-01-31T20:04:11.153Z,21.80
2019-01-31T20:06:41.087Z,21.70
2019-01-31T20:09:23.595Z,21.70
2019-01-31T20:11:53.640Z,21.60
2019-01-31T20:14:23.687Z,21.60
2019-01-31T20:16:53.762Z,21.50
2019-01-31T20:19:24.794Z,21.50
2019-01-31T20:21:54.887Z,21.50
2019-01-31T20:24:25.078Z,21.40
2019-01-31T20:26:55.145Z,21.40
2019-01-31T20:29:25.245Z,21.40
2019-01-31T20:31:56.412Z,21.30
2019-01-31T20:34:26.436Z,21.30
2019-01-31T20:36:56.309Z,21.30
2019-01-31T20:39:26.303Z,21.30
2019-01-31T20:41:56.238Z,21.30
2019-01-31T20:44:27.267Z,21.40
2019-01-31T20:46:57.336Z,21.40
2019-01-31T20:49:27.433Z,21.40
2019-01-31T20:51:57.406Z,21.40
2019-01-31T20:54:27.616Z,21.40
2019-01-31T20:56:57.562Z,21.40
2019-01-31T20:59:27.469Z,21.40
2019-01-31T21:01:57.441Z,21.50
2019-01-31T21:04:27.305Z,21.50
2019-01-31T21:06:57.248Z,21.50
2019-01-31T21:09:28.737Z,21.60
2019-01-31T21:11:58.849Z,21.70
2019-01-31T21:14:29.705Z,21.70
2019-01-31T21:16:59.729Z,21.70
2019-01-31T21:19:30.875Z,21.70
2019-01-31T21:22:00.822Z,21.70
2019-01-31T21:24:30.836Z,21.70
2019-01-31T21:27:00.773Z,21.70
2019-01-31T21:29:30.758Z,21.70
2019-01-31T21:32:00.698Z,21.60
2019-01-31T21:34:30.660Z,21.60
2019-01-31T21:37:00.574Z,21.60
2019-01-31T21:39:30.480Z,21.60
2019-01-31T21:42:00.693Z,21.50
2019-01-31T21:44:30.813Z,21.50
2019-01-31T21:47:03.326Z,21.50
2019-01-31T21:49:32.494Z,21.40
2019-01-31T21:52:02.427Z,21.40
2019-01-31T21:54:32.287Z,21.30
2019-01-31T21:57:03.144Z,21.30
2019-01-31T21:59:33.464Z,21.30
2019-01-31T22:02:03.392Z,21.20
2019-01-31T22:04:33.318Z,21.20
2019-01-31T22:07:03.212Z,21.20
2019-01-31T22:09:33.259Z,21.10
2019-01-31T22:12:03.270Z,21.10
2019-01-31T22:14:33.236Z,21.00
2019-01-31T22:17:13.950Z,21.00
2019-01-31T22:19:34.834Z,21.00
2019-01-31T22:22:04.853Z,21.00
2019-01-31T22:24:34.807Z,21.00
2019-01-31T22:27:04.783Z,21.00
2019-01-31T22:29:34.884Z,21.00
2019-01-31T22:32:04.818Z,21.00
2019-01-31T22:34:34.910Z,21.10
2019-01-31T22:37:04.833Z,21.10
2019-01-31T22:39:34.726Z,21.10
2019-01-31T22:42:04.605Z,21.20
2019-01-31T22:44:35.613Z,21.20
2019-01-31T22:47:05.557Z,21.30
2019-01-31T22:49:35.606Z,21.30
2019-01-31T22:52:05.558Z,21.30
2019-01-31T22:54:35.446Z,21.30
2019-01-31T22:57:05.394Z,21.40
2019-01-31T22:59:35.297Z,21.40
2019-01-31T23:02:10.410Z,21.40
2019-01-31T23:04:40.369Z,21.50
2019-01-31T23:07:10.305Z,21.50
2019-01-31T23:09:40.343Z,21.50
2019-01-31T23:12:10.201Z,21.50
2019-01-31T23:14:40.172Z,21.50
2019-01-31T23:17:10.105Z,21.50
2019-01-31T23:19:39.982Z,21.50
2019-01-31T23:22:09.841Z,21.50
2019-01-31T23:24:39.726Z,21.50
2019-01-31T23:27:09.653Z,21.50
2019-01-31T23:29:39.613Z,21.60
2019-01-31T23:32:09.541Z,21.60
2019-01-31T23:34:39.421Z,21.60
2019-01-31T23:37:09.345Z,21.60
2019-01-31T23:39:39.275Z,21.70
2019-01-31T23:42:09.144Z,21.70
2019-01-31T23:44:39.009Z,21.70
2019-01-31T23:47:08.964Z,21.70
2019-01-31T23:49:38.954Z,21.70
2019-01-31T23:52:08.847Z,21.70
2019-01-31T23:54:38.880Z,21.70
2019-01-31T23:57:08.729Z,21.70
2019-01-31T23:59:38.734Z,21.70
